Island Supplier — WCZ2444 — position and weather

sailwx.info

Track history (hours):
 
Tides and Currents Weather Stations Pressure Air Temp Water Temp Dewpoint Dewpoint Depression Visibility Wind Speed Wind Dir Waves Ship Positions

Island Supplier

Owner: Santa Catalina Island Resort Services, Inc., AVALON, CA. More information available from US FCC via Universal Licensing System and Coast Guard Vessel Documentation Center.

Last reported at 2015-Apr-30 17:27 UTC. Time now 2015-May-04 03:59 UTC.
Position N 33°29' W 118°28'.

Length 22 m; draft 1 m.

Type: Cargo ship. MMSI: 366765690.

Date/timePositionNaut miles runAvg speedWind from/ knotsBaromVisibWave heightAir tempDewpointWater temp
2015-Apr-30 17:27N 33°29' W 118°28'7 7.6
2015-Apr-30 16:33N 33°34' W 118°23'7 7.1
2015-Apr-30 15:33N 33°39' W 118°18'6 0.2
2015-Apr-29 14:33N 33°45' W 118°16'0 0.0
2015-Apr-29 13:33N 33°45' W 118°16'5 4.9
2015-Apr-29 12:33N 33°40' W 118°15'8 7.7
2015-Apr-29 11:33N 33°34' W 118°22'7 7.4
2015-Apr-29 10:33N 33°29' W 118°28'7 0.2
2015-Apr-27 17:28N 33°29' W 118°36'6 6.5
2015-Apr-27 16:33N 33°33' W 118°30'7 6.5
2015-Apr-27 15:33N 33°37' W 118°24'7 6.7
2015-Apr-27 14:33N 33°41' W 118°17'4 4.1
2015-Apr-27 13:33N 33°45' W 118°16'0 0.0
2015-Apr-27 12:22N 33°45' W 118°16'4 5.2
2015-Apr-27 11:33N 33°41' W 118°15'7 7.4
2015-Apr-27 10:33N 33°35' W 118°20'9 7.6
2015-Apr-27 09:21N 33°29' W 118°28'  
Track history (hours):
 
Tides and Currents Weather Stations Pressure Air Temp Water Temp Dewpoint Dewpoint Depression Visibility Wind Speed Wind Dir Waves Ship Positions

Island Supplier

Owner: Santa Catalina Island Resort Services, Inc., AVALON, CA. More information available from US FCC via Universal Licensing System and Coast Guard Vessel Documentation Center.

Last reported at 2015-Apr-30 17:27 UTC. Time now 2015-May-04 03:59 UTC.
Position N 33°29' W 118°28'.

Length 22 m; draft 1 m.

Type: Cargo ship. MMSI: 366765690.

Date/timePositionNaut miles runAvg speedWind from/ knotsBaromVisibWave heightAir tempDewpointWater temp
2015-Apr-30 17:27N 33°29' W 118°28'7 7.6
2015-Apr-30 16:33N 33°34' W 118°23'7 7.1
2015-Apr-30 15:33N 33°39' W 118°18'6 0.2
2015-Apr-29 14:33N 33°45' W 118°16'0 0.0
2015-Apr-29 13:33N 33°45' W 118°16'5 4.9
2015-Apr-29 12:33N 33°40' W 118°15'8 7.7
2015-Apr-29 11:33N 33°34' W 118°22'7 7.4
2015-Apr-29 10:33N 33°29' W 118°28'7 0.2
2015-Apr-27 17:28N 33°29' W 118°36'6 6.5
2015-Apr-27 16:33N 33°33' W 118°30'7 6.5
2015-Apr-27 15:33N 33°37' W 118°24'7 6.7
2015-Apr-27 14:33N 33°41' W 118°17'4 4.1
2015-Apr-27 13:33N 33°45' W 118°16'0 0.0
2015-Apr-27 12:22N 33°45' W 118°16'4 5.2
2015-Apr-27 11:33N 33°41' W 118°15'7 7.4
2015-Apr-27 10:33N 33°35' W 118°20'9 7.6
2015-Apr-27 09:21N 33°29' W 118°28'  

Dump ship's entire track history